Time;durP1;ratioP1;P1;durP2;ratioP2;P2;SDS_P1;SDS_P2;PMS_P1;PMS_P2;Temp;Humidity;BMP_temperature;BMP_pressure;BME280_temperature;BME280_humidity;BME280_pressure;Samples;Min_cycle;Max_cycle;Signal;HPM_P1;HPM_P2
2023/07/31 00:00:03;;;;;;;5.20;2.55;;;;;;;16.53;100.00;100071.19;5051838;28;20070;-76
2023/07/31 00:02:30;;;;;;;3.17;2.50;;;;;;;16.26;100.00;100019.50;5019037;28;20226;-76
2023/07/31 00:04:56;;;;;;;3.42;2.20;;;;;;;16.46;100.00;100062.31;5052044;28;20470;-74
2023/07/31 00:07:22;;;;;;;6.40;2.50;;;;;;;16.49;100.00;100061.22;5050894;28;20040;-75
2023/07/31 00:09:48;;;;;;;6.93;2.33;;;;;;;16.55;100.00;100061.97;5051832;28;20029;-76
2023/07/31 00:12:15;;;;;;;2.95;2.20;;;;;;;16.34;100.00;100035.69;5053418;28;20037;-76
2023/07/31 00:14:42;;;;;;;3.30;2.22;;;;;;;16.37;100.00;100036.69;5053614;28;20027;-76
2023/07/31 00:17:09;;;;;;;4.47;2.42;;;;;;;16.36;100.00;100043.78;5053270;28;20078;-76
2023/07/31 00:19:34;;;;;;;3.35;2.40;;;;;;;16.49;100.00;100072.78;5035306;28;20116;-75
2023/07/31 00:22:00;;;;;;;4.18;2.28;;;;;;;16.20;100.00;100030.34;5052942;28;20068;-77
2023/07/31 00:24:27;;;;;;;4.38;2.95;;;;;;;16.43;100.00;100072.81;5052049;28;20045;-76
2023/07/31 00:26:52;;;;;;;6.00;2.85;;;;;;;16.45;100.00;100069.41;5054253;28;20037;-76
2023/07/31 00:29:20;;;;;;;2.55;2.35;;;;;;;16.46;100.00;100073.84;5057187;28;20035;-76
2023/07/31 00:31:45;;;;;;;6.22;1.98;;;;;;;16.31;100.00;100056.16;5057058;28;20029;-76
2023/07/31 00:34:12;;;;;;;5.07;2.08;;;;;;;16.45;100.00;100075.19;5057115;28;20095;-76
2023/07/31 00:36:38;;;;;;;2.65;2.00;;;;;;;16.37;100.00;100079.97;5056959;28;20029;-75
2023/07/31 00:39:04;;;;;;;5.90;2.22;;;;;;;16.42;100.00;100071.25;5055612;28;20039;-75
2023/07/31 00:41:31;;;;;;;4.97;2.30;;;;;;;16.51;100.00;100075.88;5055950;28;20036;-75
2023/07/31 00:43:56;;;;;;;3.00;1.98;;;;;;;16.51;100.00;100078.78;5055865;28;20036;-74
2023/07/31 00:46:22;;;;;;;6.90;2.17;;;;;;;16.51;100.00;100073.00;5055397;28;20033;-76
2023/07/31 00:48:49;;;;;;;4.50;1.73;;;;;;;16.54;100.00;100074.84;5055120;28;20174;-75
2023/07/31 00:51:15;;;;;;;3.28;1.83;;;;;;;16.54;100.00;100074.84;5022367;28;20435;-76
2023/07/31 00:53:44;;;;;;;5.43;2.20;;;;;;;16.38;100.00;100050.59;5038640;28;20131;-77
2023/07/31 00:56:10;;;;;;;3.08;1.90;;;;;;;16.43;100.00;100052.63;5056650;28;20025;-75
2023/07/31 00:58:36;;;;;;;3.40;2.28;;;;;;;16.52;100.00;100065.91;5023035;28;20060;-75
2023/07/31 01:01:02;;;;;;;4.43;2.05;;;;;;;16.41;100.00;100055.28;5054763;28;20079;-76
2023/07/31 01:03:29;;;;;;;1.73;1.60;;;;;;;16.41;100.00;100055.28;5055625;28;20028;-77
2023/07/31 01:06:04;;;;;;;3.80;2.00;;;;;;;16.47;100.00;100061.75;5055003;28;20028;-75
2023/07/31 01:09:02;;;;;;;4.18;1.80;;;;;;;16.43;100.00;100061.28;5038609;28;20052;-76
2023/07/31 01:11:30;;;;;;;1.88;1.67;;;;;;;16.21;100.00;100032.66;5054777;28;20037;-76
2023/07/31 01:13:57;;;;;;;3.13;1.70;;;;;;;16.37;100.00;100066.31;5055324;28;20035;-76
2023/07/31 01:16:22;;;;;;;3.67;1.98;;;;;;;16.35;100.00;100060.31;5038583;28;20021;-76
2023/07/31 01:18:49;;;;;;;4.22;1.80;;;;;;;16.32;100.00;100075.03;5038547;28;20095;-76
2023/07/31 01:21:47;;;;;;;5.78;1.80;;;;;;;16.21;100.00;100047.06;5055254;28;20068;-77
2023/07/31 01:24:38;;;;;;;3.63;1.90;;;;;;;16.23;100.00;100052.31;5038221;28;20035;-75
2023/07/31 01:27:17;;;;;;;4.65;1.85;;;;;;;16.22;100.00;100054.41;5056076;28;20036;-76
2023/07/31 01:29:49;;;;;;;6.07;1.90;;;;;;;16.20;100.00;100062.06;5038849;28;20090;-75
2023/07/31 01:32:17;;;;;;;4.82;2.30;;;;;;;16.18;100.00;100059.69;5054496;28;20535;-76
2023/07/31 01:34:50;;;;;;;2.63;1.60;;;;;;;16.17;100.00;100063.91;5037995;28;20021;-76
2023/07/31 01:37:15;;;;;;;1.65;1.55;;;;;;;16.20;100.00;100067.81;5054346;28;20085;-75
2023/07/31 01:39:41;;;;;;;4.82;1.80;;;;;;;16.15;100.00;100068.66;5055769;28;20092;-77
2023/07/31 01:42:07;;;;;;;2.33;1.95;;;;;;;16.14;100.00;100067.88;5055956;28;20489;-76
2023/07/31 01:44:35;;;;;;;4.03;1.83;;;;;;;16.14;100.00;100044.81;5055897;28;20029;-77
2023/07/31 01:47:01;;;;;;;4.78;1.90;;;;;;;16.08;100.00;100052.72;5055694;28;20039;-76
2023/07/31 01:49:28;;;;;;;8.73;1.80;;;;;;;16.18;100.00;100070.44;5037703;28;20537;-76
2023/07/31 01:51:54;;;;;;;5.10;2.15;;;;;;;16.19;100.00;100072.00;5037771;28;20111;-76
2023/07/31 01:54:22;;;;;;;2.95;2.00;;;;;;;15.94;100.00;100036.59;5054125;28;20117;-77
2023/07/31 01:56:47;;;;;;;4.15;1.63;;;;;;;16.21;100.00;100078.00;5037692;28;20490;-76
2023/07/31 01:59:14;;;;;;;5.55;2.03;;;;;;;15.88;100.00;100028.00;5053683;28;20095;-75
2023/07/31 02:01:41;;;;;;;5.30;2.30;;;;;;;16.23;100.00;100072.50;5072459;28;20025;-76
2023/07/31 02:04:10;;;;;;;6.95;2.10;;;;;;;15.95;100.00;100026.63;5075493;28;20016;-75
2023/07/31 02:06:36;;;;;;;4.70;3.05;;;;;;;16.08;100.00;100041.19;5075283;28;20035;-75
2023/07/31 02:09:10;;;;;;;6.25;2.03;;;;;;;16.09;100.00;100034.09;5075198;28;20029;-75
2023/07/31 02:11:50;;;;;;;5.80;2.72;;;;;;;16.25;100.00;100061.22;5073881;28;20535;-76
2023/07/31 02:14:17;;;;;;;2.53;2.20;;;;;;;16.08;100.00;100041.19;5073772;28;20016;-76
2023/07/31 02:16:44;;;;;;;7.32;1.75;;;;;;;15.92;100.00;100016.16;5075148;28;20103;-76
2023/07/31 02:19:10;;;;;;;4.82;1.80;;;;;;;16.21;100.00;100052.06;5074917;28;20024;-76
2023/07/31 02:21:39;;;;;;;8.25;2.60;;;;;;;16.07;100.00;100040.41;5073942;28;20031;-75
2023/07/31 02:24:04;;;;;;;7.13;2.20;;;;;;;15.86;100.00;99995.28;5073685;28;20021;-76
2023/07/31 02:26:30;;;;;;;6.10;2.30;;;;;;;16.16;100.00;100052.88;5072220;28;20052;-75
2023/07/31 02:28:55;;;;;;;8.50;2.20;;;;;;;16.21;100.00;100057.81;5074585;28;20029;-76
2023/07/31 02:31:22;;;;;;;6.78;2.20;;;;;;;16.03;100.00;100031.28;5088360;28;20033;-76
2023/07/31 02:33:49;;;;;;;7.25;2.05;;;;;;;16.09;100.00;100046.41;5074848;28;20020;-76
2023/07/31 02:36:15;;;;;;;7.10;1.80;;;;;;;16.14;100.00;100067.88;5073264;28;20031;-76
2023/07/31 02:38:41;;;;;;;3.72;1.65;;;;;;;16.11;100.00;100063.94;5074801;28;20024;-76
2023/07/31 02:41:07;;;;;;;10.50;2.08;;;;;;;15.98;100.00;100039.97;5074499;28;20487;-75
2023/07/31 02:43:33;;;;;;;8.32;1.98;;;;;;;16.15;100.00;100052.13;5068406;28;20037;-75
2023/07/31 02:46:02;;;;;;;3.78;2.28;;;;;;;16.19;100.00;100061.25;5073315;28;20036;-76
2023/07/31 02:48:29;;;;;;;5.15;1.98;;;;;;;16.23;100.00;100063.84;5073344;28;20093;-75
2023/07/31 02:50:55;;;;;;;7.57;2.85;;;;;;;16.19;100.00;100046.06;5072002;28;20374;-75
2023/07/31 02:53:22;;;;;;;8.32;2.20;;;;;;;16.06;100.00;100050.34;5073126;28;20086;-75
2023/07/31 02:55:48;;;;;;;19.13;2.80;;;;;;;16.24;100.00;100068.28;5073224;28;20030;-75
2023/07/31 02:58:15;;;;;;;3.70;2.05;;;;;;;15.96;100.00;100034.72;5074021;28;20123;-75
2023/07/31 03:00:52;;;;;;;4.40;2.15;;;;;;;16.21;100.00;100070.13;5073954;28;20433;-75
2023/07/31 03:03:17;;;;;;;3.50;2.35;;;;;;;16.08;100.00;100058.47;5074145;28;20028;-75
2023/07/31 03:05:44;;;;;;;4.65;2.10;;;;;;;15.86;100.00;100032.75;5074111;28;20031;-75
2023/07/31 03:08:11;;;;;;;5.18;2.45;;;;;;;16.04;100.00;100064.53;5073870;28;20098;-77
2023/07/31 03:10:38;;;;;;;6.40;2.28;;;;;;;15.96;100.00;100059.88;5074030;28;20028;-76
2023/07/31 03:13:04;;;;;;;3.58;2.00;;;;;;;15.90;100.00;100062.84;5073865;28;20065;-76
2023/07/31 03:15:31;;;;;;;7.07;2.40;;;;;;;15.93;100.00;100067.50;5054623;28;20393;-76
2023/07/31 03:17:57;;;;;;;9.02;2.60;;;;;;;15.86;100.00;100058.69;5072588;28;20031;-75
2023/07/31 03:20:25;;;;;;;9.60;2.33;;;;;;;15.73;100.00;100042.00;5089480;28;20020;-75
2023/07/31 03:22:52;;;;;;;4.85;2.40;;;;;;;15.73;100.00;100050.63;5072568;28;20024;-75
2023/07/31 03:25:19;;;;;;;4.00;2.30;;;;;;;15.85;100.00;100062.88;5073847;28;20029;-76
2023/07/31 03:27:45;;;;;;;5.65;1.83;;;;;;;15.75;100.00;100061.63;5073786;28;20032;-76
2023/07/31 03:30:12;;;;;;;7.25;2.65;;;;;;;15.76;100.00;100068.97;5054476;28;20032;-77
2023/07/31 03:32:38;;;;;;;8.07;2.13;;;;;;;15.71;100.00;100061.94;5071207;28;20060;-76
2023/07/31 03:35:05;;;;;;;9.23;2.08;;;;;;;15.77;100.00;100074.19;5088953;28;20389;-75
2023/07/31 03:37:32;;;;;;;6.97;1.83;;;;;;;15.72;100.00;100057.72;5074138;28;20107;-76
2023/07/31 03:39:57;;;;;;;6.45;2.20;;;;;;;15.72;100.00;100072.13;5090069;28;20016;-76
2023/07/31 03:42:31;;;;;;;3.03;2.08;;;;;;;15.75;100.00;100071.06;5090318;28;20128;-76
2023/07/31 03:44:56;;;;;;;13.15;3.55;;;;;;;15.67;100.00;100061.41;5073904;28;20032;-76
2023/07/31 03:47:22;;;;;;;5.53;2.20;;;;;;;15.62;100.00;100059.34;5072605;28;20070;-75
2023/07/31 03:49:48;;;;;;;6.18;1.90;;;;;;;15.64;100.00;100057.53;5073504;28;20490;-75
2023/07/31 03:52:14;;;;;;;4.38;1.85;;;;;;;15.51;100.00;100033.50;5089366;28;20028;-76
2023/07/31 03:54:41;;;;;;;7.65;2.35;;;;;;;15.72;100.00;100065.56;5072268;28;20523;-76
2023/07/31 03:57:08;;;;;;;7.97;2.05;;;;;;;15.78;100.00;100074.97;5073298;28;20017;-75
2023/07/31 03:59:33;;;;;;;8.75;2.17;;;;;;;15.76;100.00;100081.25;5072124;28;20070;-76
2023/07/31 04:02:01;;;;;;;4.35;2.00;;;;;;;15.76;100.00;100072.59;5073339;28;20412;-77
2023/07/31 04:04:29;;;;;;;4.20;2.08;;;;;;;15.76;100.00;100071.84;5089179;28;20021;-74
2023/07/31 04:06:54;;;;;;;6.07;2.42;;;;;;;15.51;100.00;100034.28;5072099;28;20044;-75
2023/07/31 04:09:24;;;;;;;5.35;2.38;;;;;;;15.76;100.00;100060.31;5072092;28;20075;-75
2023/07/31 04:11:50;;;;;;;6.78;2.40;;;;;;;15.74;100.00;100060.84;5073340;28;20040;-75
2023/07/31 04:14:17;;;;;;;3.10;1.95;;;;;;;15.79;100.00;100060.03;5071988;28;20036;-75
2023/07/31 04:16:43;;;;;;;6.22;2.45;;;;;;;15.65;100.00;100032.38;5089215;28;20093;-75
2023/07/31 04:19:10;;;;;;;6.97;2.75;;;;;;;15.66;100.00;100037.59;5072023;28;20028;-75
2023/07/31 04:21:36;;;;;;;5.95;2.40;;;;;;;15.60;100.00;100021.69;5073440;28;20073;-75
2023/07/31 04:24:01;;;;;;;4.55;2.45;;;;;;;15.82;100.00;100052.41;5071980;28;20103;-75
2023/07/31 04:26:27;;;;;;;5.10;2.58;;;;;;;15.64;100.00;100019.28;5071626;28;20481;-76
2023/07/31 04:28:54;;;;;;;7.22;2.70;;;;;;;15.88;100.00;100041.63;5073407;28;20025;-75
2023/07/31 04:31:21;;;;;;;6.13;3.00;;;;;;;16.06;100.00;100066.88;5088766;28;20119;-75
2023/07/31 04:33:48;;;;;;;5.88;3.05;;;;;;;16.14;100.00;100062.09;5073060;28;20036;-76
2023/07/31 04:36:25;;;;;;;7.60;3.60;;;;;;;16.26;100.00;100065.63;5071835;28;20035;-76
2023/07/31 04:38:53;;;;;;;6.05;2.85;;;;;;;16.36;100.00;100069.75;5073333;28;20033;-76
2023/07/31 04:41:19;;;;;;;11.60;2.83;;;;;;;16.37;100.00;100059.78;5055244;28;20099;-76
2023/07/31 04:43:46;;;;;;;6.05;2.55;;;;;;;16.10;100.00;100007.63;5073254;28;20028;-76
2023/07/31 04:46:12;;;;;;;6.95;2.72;;;;;;;16.66;100.00;100066.84;5088643;28;20035;-75
2023/07/31 04:48:37;;;;;;;7.57;2.97;;;;;;;16.78;100.00;100068.28;5088523;28;20032;-76
2023/07/31 04:51:03;;;;;;;6.57;2.22;;;;;;;16.87;100.00;100059.25;5088390;28;20448;-75
2023/07/31 04:53:29;;;;;;;8.13;2.95;;;;;;;16.91;100.00;100048.97;5073277;28;20086;-76
2023/07/31 04:55:55;;;;;;;6.55;2.58;;;;;;;16.94;100.00;100042.09;5073189;28;20489;-76
2023/07/31 04:58:21;;;;;;;7.53;2.90;;;;;;;17.06;100.00;100054.28;5070606;28;20048;-75
2023/07/31 05:00:47;;;;;;;10.38;3.25;;;;;;;17.14;100.00;100057.34;5072768;28;20021;-76
2023/07/31 05:03:13;;;;;;;8.23;2.63;;;;;;;17.30;100.00;100065.00;5073893;28;20043;-77
2023/07/31 05:05:39;;;;;;;4.05;1.80;;;;;;;17.48;100.00;100057.69;5072721;28;20024;-75
2023/07/31 05:08:05;;;;;;;5.53;2.28;;;;;;;17.62;100.00;100048.53;5071461;28;20047;-76
2023/07/31 05:10:31;;;;;;;6.18;1.90;;;;;;;17.95;100.00;100063.78;5072335;28;20036;-76
2023/07/31 05:12:59;;;;;;;7.07;2.80;;;;;;;18.20;100.00;100065.97;5071853;28;20107;-76
2023/07/31 05:15:24;;;;;;;4.45;1.77;;;;;;;18.36;100.00;100048.91;5075307;28;20049;-77
2023/07/31 05:17:50;;;;;;;3.05;1.85;;;;;;;18.56;100.00;100045.38;5076165;28;20395;-75
2023/07/31 05:20:17;;;;;;;6.68;2.53;;;;;;;18.76;100.00;100056.31;5075885;28;20021;-76
2023/07/31 05:22:44;;;;;;;4.22;1.85;;;;;;;18.93;100.00;100064.63;5076523;28;20104;-76
2023/07/31 05:25:09;;;;;;;6.35;2.03;;;;;;;19.06;100.00;100055.94;5076440;28;20071;-75
2023/07/31 05:27:35;;;;;;;5.28;1.50;;;;;;;19.17;100.00;100049.16;5076328;28;20032;-76
2023/07/31 05:30:02;;;;;;;4.30;1.90;;;;;;;19.25;100.00;100045.03;5076055;28;20025;-78
2023/07/31 05:32:28;;;;;;;2.17;1.60;;;;;;;19.41;100.00;100063.38;5076292;28;20037;-76
2023/07/31 05:34:55;;;;;;;3.33;2.10;;;;;;;19.39;100.00;100040.75;5074864;28;20078;-76
2023/07/31 05:37:22;;;;;;;9.35;1.80;;;;;;;19.58;100.00;100054.28;5075915;28;20484;-77
2023/07/31 05:39:48;;;;;;;5.82;1.90;;;;;;;19.66;100.00;100055.19;5075875;28;20108;-77
2023/07/31 05:42:15;;;;;;;4.38;1.33;;;;;;;19.73;100.00;100055.25;5091892;28;20478;-76
2023/07/31 05:44:41;;;;;;;4.90;2.22;;;;;;;19.84;100.00;100048.41;5057757;28;20115;-75
2023/07/31 05:47:07;;;;;;;3.85;1.50;;;;;;;19.92;100.00;100049.25;5075857;28;20067;-77
2023/07/31 05:49:35;;;;;;;4.25;1.85;;;;;;;20.08;100.00;100053.09;5075442;28;20071;-76
2023/07/31 05:52:01;;;;;;;4.85;2.10;;;;;;;20.14;100.00;100050.84;5073739;28;20127;-76
2023/07/31 05:54:27;;;;;;;6.78;1.58;;;;;;;20.18;100.00;100036.75;5075275;28;20107;-77
2023/07/31 05:56:52;;;;;;;3.17;1.55;;;;;;;20.35;100.00;100043.66;5074288;28;20039;-76
2023/07/31 05:59:18;;;;;;;6.50;1.70;;;;;;;20.39;100.00;100035.41;5073739;28;20048;-76
2023/07/31 06:01:43;;;;;;;7.68;1.77;;;;;;;20.45;100.00;100028.66;5091346;28;20029;-76
2023/07/31 06:04:09;;;;;;;4.47;2.20;;;;;;;20.70;100.00;100050.94;5074186;28;20048;-76
2023/07/31 06:06:34;;;;;;;5.40;1.52;;;;;;;20.75;100.00;100043.41;5074493;28;20021;-76
2023/07/31 06:09:01;;;;;;;9.20;1.77;;;;;;;20.75;100.00;100025.97;5076137;28;20116;-76
2023/07/31 06:11:26;;;;;;;5.78;1.55;;;;;;;20.64;100.00;100014.66;5075633;28;20036;-77
2023/07/31 06:13:52;;;;;;;4.75;1.75;;;;;;;20.82;100.00;100033.97;5073649;28;20530;-74
2023/07/31 06:16:17;;;;;;;5.50;1.67;;;;;;;20.98;100.00;100040.66;5057102;28;20035;-75
2023/07/31 06:18:43;;;;;;;7.68;1.63;;;;;;;21.02;100.00;100038.94;5074775;28;20039;-75
2023/07/31 06:21:10;;;;;;;4.38;1.88;;;;;;;21.01;100.00;100034.47;5074896;28;20052;-75
2023/07/31 06:23:36;;;;;;;4.53;1.60;;;;;;;20.95;100.00;100035.97;5073763;28;20051;-78
2023/07/31 06:26:02;;;;;;;6.90;1.80;;;;;;;20.83;100.00;100018.09;5073592;28;20376;-76
2023/07/31 06:28:31;;;;;;;6.10;1.65;;;;;;;20.90;100.00;100031.88;5073700;28;20119;-76
2023/07/31 06:31:00;;;;;;;6.00;1.52;;;;;;;20.93;100.00;100038.69;5073387;28;20033;-77
2023/07/31 06:33:27;;;;;;;3.95;1.45;;;;;;;20.97;100.00;100034.06;5075247;28;20032;-75
2023/07/31 06:35:54;;;;;;;8.90;1.58;;;;;;;21.01;100.00;100030.78;5073546;28;20127;-76
2023/07/31 06:38:22;;;;;;;2.90;1.70;;;;;;;21.11;100.00;100032.59;5074467;28;20060;-76
2023/07/31 06:40:49;;;;;;;4.15;1.20;;;;;;;21.16;100.00;100031.63;5087749;28;20036;-76
2023/07/31 06:43:15;;;;;;;5.35;1.60;;;;;;;21.20;100.00;100020.41;5075791;28;20021;-76
2023/07/31 06:45:41;;;;;;;6.60;2.22;;;;;;;21.38;100.00;100038.13;5057282;28;20139;-75
2023/07/31 06:48:09;;;;;;;1.92;1.38;;;;;;;21.46;100.00;100033.91;5075478;28;20495;-77
2023/07/31 06:50:37;;;;;;;4.60;1.38;;;;;;;21.56;100.00;100039.97;5074887;28;20033;-76
2023/07/31 06:53:03;;;;;;;3.00;1.33;;;;;;;21.56;100.00;100039.97;5073142;28;20060;-76
2023/07/31 06:55:31;;;;;;;5.65;1.75;;;;;;;21.74;100.00;100040.97;5074520;28;20500;-76
2023/07/31 06:57:56;;;;;;;2.15;1.30;;;;;;;21.98;100.00;100032.47;5074175;28;20052;-77
2023/07/31 07:00:37;;;;;;;4.05;1.58;;;;;;;22.23;100.00;100037.75;5072943;28;20426;-77
2023/07/31 07:03:03;;;;;;;7.00;1.60;;;;;;;22.27;100.00;100032.34;5074452;28;20051;-76
2023/07/31 07:05:30;;;;;;;3.55;1.70;;;;;;;22.24;100.00;100039.31;5074409;28;20039;-79
2023/07/31 07:07:55;;;;;;;3.17;1.23;;;;;;;22.15;100.00;100034.84;5074068;28;20540;-77
2023/07/31 07:10:21;;;;;;;7.72;1.50;;;;;;;22.00;100.00;100026.88;5074368;28;20104;-77
2023/07/31 07:12:49;;;;;;;3.45;1.20;;;;;;;21.86;100.00;100018.88;5073435;28;20097;-84
2023/07/31 07:15:14;;;;;;;6.32;1.70;;;;;;;21.77;100.00;100019.47;5072683;28;20028;-76
2023/07/31 07:17:42;;;;;;;6.85;1.40;;;;;;;21.66;100.00;100021.38;5089362;28;20024;-76
2023/07/31 07:20:09;;;;;;;6.47;1.30;;;;;;;21.64;100.00;100018.25;5073940;28;20393;-76
2023/07/31 07:22:34;;;;;;;3.88;2.13;;;;;;;21.55;100.00;100010.09;5074149;28;20024;-76
2023/07/31 07:25:05;;;;;;;7.75;1.67;;;;;;;21.46;100.00;100013.56;5072526;28;20390;-76
2023/07/31 07:27:31;;;;;;;3.83;1.35;;;;;;;21.40;100.00;100007.13;5089526;28;20389;-75
2023/07/31 07:29:57;;;;;;;5.95;1.67;;;;;;;21.39;100.00;99996.06;5073331;28;20044;-77
2023/07/31 07:32:24;;;;;;;5.32;1.52;;;;;;;21.58;100.00;100005.28;5072966;28;20025;-77
2023/07/31 07:34:51;;;;;;;2.85;1.55;;;;;;;21.78;100.00;99998.50;5088847;28;20516;-76
2023/07/31 07:37:19;;;;;;;5.47;1.58;;;;;;;22.02;100.00;100003.78;5073038;28;20489;-78
2023/07/31 07:39:44;;;;;;;5.70;1.50;;;;;;;22.20;100.00;100004.00;5072282;28;20032;-77
2023/07/31 07:42:11;;;;;;;2.25;1.48;;;;;;;22.30;100.00;99996.25;5073764;28;20032;-78
2023/07/31 07:44:37;;;;;;;3.50;1.55;;;;;;;22.44;100.00;100009.22;5073692;28;20040;-76
2023/07/31 07:47:06;;;;;;;5.03;1.23;;;;;;;22.66;100.00;99987.25;5089472;28;20028;-77
2023/07/31 07:49:33;;;;;;;5.75;1.60;;;;;;;23.01;100.00;100000.00;5088725;28;20041;-75
2023/07/31 07:51:59;;;;;;;6.20;1.83;;;;;;;23.40;100.00;99992.66;5072210;28;20130;-76
2023/07/31 07:54:32;;;;;;;3.08;1.40;;;;;;;23.82;100.00;99995.72;5072462;28;20075;-75
2023/07/31 07:56:57;;;;;;;3.33;1.73;;;;;;;24.18;100.00;99998.94;5072358;28;20466;-75
2023/07/31 07:59:24;;;;;;;3.05;1.17;;;;;;;24.63;99.24;99997.78;5073001;28;20183;-77
2023/07/31 08:01:49;;;;;;;6.25;1.63;;;;;;;25.17;99.10;99997.97;5089193;28;20029;-78
2023/07/31 08:04:17;;;;;;;6.63;1.52;;;;;;;25.73;89.33;100008.53;5073441;28;20145;-76
2023/07/31 08:06:42;;;;;;;1.90;1.00;;;;;;;26.14;89.02;99997.22;5073169;28;20555;-78
2023/07/31 08:09:08;;;;;;;6.00;1.13;;;;;;;26.76;85.63;99998.50;5072139;28;20056;-83
2023/07/31 08:11:35;;;;;;;7.47;1.42;;;;;;;27.34;81.08;100004.41;5073692;28;20115;-82
2023/07/31 08:14:00;;;;;;;5.35;1.45;;;;;;;27.83;71.52;99999.97;5089352;28;20171;-80
2023/07/31 08:16:27;;;;;;;5.38;1.45;;;;;;;28.31;77.62;99982.16;5072975;28;20055;-80
2023/07/31 08:18:52;;;;;;;2.20;1.13;;;;;;;28.83;74.58;99993.94;5087687;28;20036;-80
2023/07/31 08:21:18;;;;;;;4.10;1.52;;;;;;;29.53;72.71;99995.00;5072132;28;20032;-80
2023/07/31 08:23:43;;;;;;;1.45;0.90;;;;;;;30.40;54.70;100006.59;5071874;28;20036;-80
2023/07/31 08:26:16;;;;;;;2.92;1.30;;;;;;;30.78;52.45;100013.38;5070782;28;20047;-82
2023/07/31 08:28:41;;;;;;;2.88;1.00;;;;;;;30.93;52.44;100015.78;5087546;28;20036;-80
2023/07/31 08:31:07;;;;;;;3.28;1.50;;;;;;;31.21;52.57;100010.84;5071493;28;20034;-80
2023/07/31 08:33:32;;;;;;;6.00;1.45;;;;;;;31.30;47.73;100018.78;5070947;28;20082;-81
2023/07/31 08:35:59;;;;;;;5.38;1.13;;;;;;;31.36;45.51;100016.94;5070829;28;20040;-80
2023/07/31 08:38:25;;;;;;;6.55;1.92;;;;;;;31.25;42.51;100026.66;5071003;28;20024;-80
2023/07/31 08:40:50;;;;;;;6.10;1.40;;;;;;;30.86;43.08;100022.75;5071163;28;20074;-80
2023/07/31 08:43:16;;;;;;;6.35;1.35;;;;;;;30.40;45.95;100014.69;5070753;28;20033;-80
2023/07/31 08:45:42;;;;;;;5.90;1.67;;;;;;;29.91;48.69;100029.22;5072202;28;20070;-80
2023/07/31 08:48:08;;;;;;;5.28;1.63;;;;;;;29.41;50.43;100017.78;5074276;28;20028;-79
2023/07/31 08:50:33;;;;;;;3.80;1.45;;;;;;;28.99;54.14;100011.91;5075395;28;20024;-80
2023/07/31 08:52:59;;;;;;;4.75;1.35;;;;;;;28.24;51.90;100003.69;5092598;28;20064;-80
2023/07/31 08:55:24;;;;;;;3.05;1.50;;;;;;;27.60;56.43;99994.63;5075483;28;20028;-79
2023/07/31 08:57:53;;;;;;;4.00;1.70;;;;;;;26.83;60.55;99991.69;5076718;28;20101;-80
2023/07/31 09:00:21;;;;;;;3.35;1.75;;;;;;;26.18;67.84;100000.47;5075405;28;20078;-80
2023/07/31 09:02:51;;;;;;;3.72;1.65;;;;;;;25.60;73.48;99999.38;5076537;28;20484;-80
2023/07/31 09:05:17;;;;;;;5.30;1.38;;;;;;;25.06;78.64;99999.28;5076258;28;20477;-79
2023/07/31 09:07:46;;;;;;;4.80;1.75;;;;;;;24.56;85.06;99993.56;5092002;28;20494;-79
2023/07/31 09:10:11;;;;;;;3.42;1.70;;;;;;;24.06;90.37;99997.88;5091802;28;20028;-82
2023/07/31 09:12:38;;;;;;;2.33;1.80;;;;;;;24.02;92.22;99989.53;5076221;28;20040;-80
2023/07/31 09:15:04;;;;;;;6.00;2.28;;;;;;;23.95;96.39;99977.94;5075129;28;20025;-80
2023/07/31 09:17:31;;;;;;;6.70;2.13;;;;;;;23.98;93.61;99976.72;5076425;28;20115;-80
2023/07/31 09:19:56;;;;;;;3.13;1.40;;;;;;;24.04;93.66;99971.44;5076158;28;20438;-80
2023/07/31 09:22:34;;;;;;;5.05;1.75;;;;;;;24.24;93.16;99970.31;5076276;28;20113;-80
2023/07/31 09:25:19;;;;;;;5.53;2.13;;;;;;;24.41;92.13;99990.00;5074901;28;20044;-81
2023/07/31 09:27:47;;;;;;;5.60;1.52;;;;;;;24.54;88.14;100001.38;5076465;28;20107;-79
2023/07/31 09:30:13;;;;;;;8.57;1.70;;;;;;;24.67;83.55;99998.13;5075812;28;20473;-80
2023/07/31 09:32:39;;;;;;;4.75;1.75;;;;;;;24.47;83.71;100002.22;5075827;28;20037;-80
2023/07/31 09:35:21;;;;;;;4.22;1.40;;;;;;;23.94;83.85;100005.56;5091556;28;20032;-80
2023/07/31 09:37:52;;;;;;;3.92;1.70;;;;;;;23.71;85.25;100008.63;5075302;28;20067;-81
2023/07/31 09:40:38;;;;;;;4.88;1.65;;;;;;;23.53;88.34;100007.72;5076173;28;20016;-80
2023/07/31 09:43:10;;;;;;;5.50;2.15;;;;;;;23.25;88.59;100014.69;5076794;28;20025;-80
2023/07/31 09:45:42;;;;;;;4.22;1.90;;;;;;;23.13;89.36;100012.78;5093402;28;20036;-80
2023/07/31 09:48:12;;;;;;;;;;;;;;;23.12;91.17;100008.31;5080958;28;20382;-81
2023/07/31 09:50:51;;;;;;;4.60;1.67;;;;;;;22.93;91.93;100002.94;5075892;28;19917;-79
2023/07/31 09:53:16;;;;;;;3.58;1.95;;;;;;;22.76;94.50;100002.78;5074936;28;20077;-80
2023/07/31 09:55:43;;;;;;;5.10;1.65;;;;;;;22.66;98.76;99999.69;5076908;28;20124;-78
2023/07/31 09:58:11;;;;;;;5.50;1.98;;;;;;;22.58;100.00;99992.31;5091300;28;20178;-78
2023/07/31 10:00:38;;;;;;;5.18;1.70;;;;;;;22.65;100.00;99988.63;5075175;28;20078;-79
2023/07/31 10:03:10;;;;;;;2.65;1.67;;;;;;;22.58;100.00;99986.47;5057605;28;20036;-79
2023/07/31 10:05:47;;;;;;;5.43;1.85;;;;;;;22.47;100.00;99987.69;5057663;28;20127;-79
2023/07/31 10:08:30;;;;;;;9.68;2.55;;;;;;;22.44;100.00;99980.88;5074316;28;20504;-78
2023/07/31 10:11:14;;;;;;;4.70;1.90;;;;;;;22.44;100.00;99974.28;5075429;28;20039;-78
2023/07/31 10:13:41;;;;;;;1.75;1.60;;;;;;;22.45;100.00;99967.88;5076078;28;20044;-81
2023/07/31 10:16:07;;;;;;;6.03;1.30;;;;;;;22.34;100.00;99964.59;5075877;28;20020;-81
2023/07/31 10:18:33;;;;;;;3.58;1.60;;;;;;;22.36;100.00;99979.34;5075981;28;20029;-79
2023/07/31 10:20:59;;;;;;;4.55;1.50;;;;;;;22.50;100.00;99969.03;5074858;28;20032;-78
2023/07/31 10:23:25;;;;;;;4.38;1.60;;;;;;;22.51;100.00;99965.53;5075451;28;20448;-81
2023/07/31 10:25:53;;;;;;;1.40;1.17;;;;;;;22.50;100.00;99960.28;5091120;28;20033;-78
2023/07/31 10:28:18;;;;;;;4.30;1.55;;;;;;;22.75;100.00;99969.94;5090289;28;20045;-79
2023/07/31 10:30:53;;;;;;;6.13;1.63;;;;;;;23.03;100.00;99974.72;5090481;28;20027;-81
2023/07/31 10:33:20;;;;;;;8.75;1.95;;;;;;;23.26;100.00;99978.31;5073719;28;20425;-81
2023/07/31 10:35:48;;;;;;;4.10;1.50;;;;;;;23.33;100.00;99974.59;5073565;28;20477;-77
2023/07/31 10:38:14;;;;;;;4.15;1.55;;;;;;;23.18;100.00;99976.81;5090104;28;20064;-76
2023/07/31 10:40:41;;;;;;;2.75;1.48;;;;;;;23.05;100.00;99965.41;5090299;28;20024;-82
2023/07/31 10:43:08;;;;;;;3.47;1.45;;;;;;;23.15;100.00;99957.59;5090055;28;20482;-78
2023/07/31 10:45:44;;;;;;;6.53;1.50;;;;;;;22.84;100.00;99962.72;5074936;28;20029;-78
2023/07/31 10:48:15;;;;;;;3.47;1.65;;;;;;;22.84;100.00;99974.38;5090182;28;20078;-78
2023/07/31 10:50:50;;;;;;;5.38;2.13;;;;;;;22.82;100.00;99971.25;5074553;28;20358;-78
2023/07/31 10:53:23;;;;;;;2.38;1.55;;;;;;;22.73;100.00;99963.91;5072934;28;20069;-77
2023/07/31 10:55:53;;;;;;;5.28;1.65;;;;;;;22.50;100.00;99963.22;5074626;28;20099;-79
2023/07/31 10:58:21;;;;;;;5.03;1.55;;;;;;;22.27;100.00;99956.66;5074025;28;20064;-77
2023/07/31 11:00:46;;;;;;;4.50;1.60;;;;;;;22.30;100.00;99956.25;5074149;28;20021;-76
2023/07/31 11:03:17;;;;;;;4.63;1.42;;;;;;;22.56;100.00;99952.13;5089619;28;20047;-76
2023/07/31 11:05:42;;;;;;;4.25;1.45;;;;;;;22.86;100.00;99949.13;5071970;28;20028;-77
2023/07/31 11:08:19;;;;;;;3.92;1.58;;;;;;;23.23;99.81;99956.16;5071753;28;20024;-77
2023/07/31 11:10:46;;;;;;;6.35;2.00;;;;;;;23.41;97.18;99950.47;5070958;28;20024;-78
2023/07/31 11:13:11;;;;;;;8.52;1.85;;;;;;;23.59;95.98;99943.34;5072084;28;20028;-76
2023/07/31 11:15:37;;;;;;;7.50;1.70;;;;;;;23.73;96.97;99939.56;5071757;28;20044;-77
2023/07/31 11:18:03;;;;;;;2.83;1.55;;;;;;;24.07;98.71;99935.97;5087522;28;20032;-77
2023/07/31 11:20:36;;;;;;;9.48;1.55;;;;;;;24.44;94.87;99934.09;5072198;28;20032;-78
2023/07/31 11:23:03;;;;;;;3.45;1.55;;;;;;;24.69;92.81;99927.41;5072541;28;20123;-78